sensor_id;sensor_type;location;lat;lon;timestamp;temperature;humidity
16814;DHT22;8524;57.650;11.926;2023-02-15T00:02:01;4.10;99.90
16814;DHT22;8524;57.650;11.926;2023-02-15T00:04:29;4.10;99.90
16814;DHT22;8524;57.650;11.926;2023-02-15T00:07:13;4.10;99.90
16814;DHT22;8524;57.650;11.926;2023-02-15T00:09:40;4.10;99.90
16814;DHT22;8524;57.650;11.926;2023-02-15T00:12:09;4.10;99.90
16814;DHT22;8524;57.650;11.926;2023-02-15T00:14:37;4.10;99.90
16814;DHT22;8524;57.650;11.926;2023-02-15T00:17:04;4.10;99.90
16814;DHT22;8524;57.650;11.926;2023-02-15T00:19:31;4.10;99.90
16814;DHT22;8524;57.650;11.926;2023-02-15T00:21:58;4.10;99.90
16814;DHT22;8524;57.650;11.926;2023-02-15T00:24:26;4.10;99.90
16814;DHT22;8524;57.650;11.926;2023-02-15T00:26:53;4.10;99.90
16814;DHT22;8524;57.650;11.926;2023-02-15T00:29:21;4.10;99.90
16814;DHT22;8524;57.650;11.926;2023-02-15T00:31:49;4.10;99.90
16814;DHT22;8524;57.650;11.926;2023-02-15T00:34:18;4.10;99.90
16814;DHT22;8524;57.650;11.926;2023-02-15T00:36:46;4.10;99.90
16814;DHT22;8524;57.650;11.926;2023-02-15T00:39:13;4.00;99.90
16814;DHT22;8524;57.650;11.926;2023-02-15T00:41:40;4.10;99.90
16814;DHT22;8524;57.650;11.926;2023-02-15T00:44:08;4.10;99.90
16814;DHT22;8524;57.650;11.926;2023-02-15T00:46:36;4.10;99.90
16814;DHT22;8524;57.650;11.926;2023-02-15T00:49:03;4.10;99.90
16814;DHT22;8524;57.650;11.926;2023-02-15T00:51:31;4.10;99.90
16814;DHT22;8524;57.650;11.926;2023-02-15T00:53:58;4.20;99.90
16814;DHT22;8524;57.650;11.926;2023-02-15T00:56:25;4.10;99.90
16814;DHT22;8524;57.650;11.926;2023-02-15T00:58:54;4.10;99.90
16814;DHT22;8524;57.650;11.926;2023-02-15T01:01:21;4.10;99.90
16814;DHT22;8524;57.650;11.926;2023-02-15T01:03:50;4.10;99.90
16814;DHT22;8524;57.650;11.926;2023-02-15T01:06:18;4.10;99.90
16814;DHT22;8524;57.650;11.926;2023-02-15T01:08:45;4.00;99.90
16814;DHT22;8524;57.650;11.926;2023-02-15T01:11:15;4.00;99.90
16814;DHT22;8524;57.650;11.926;2023-02-15T01:13:48;4.10;99.90
16814;DHT22;8524;57.650;11.926;2023-02-15T01:16:16;4.10;99.90
16814;DHT22;8524;57.650;11.926;2023-02-15T01:18:43;4.10;99.90
16814;DHT22;8524;57.650;11.926;2023-02-15T01:21:13;4.00;99.90
16814;DHT22;8524;57.650;11.926;2023-02-15T01:23:41;4.00;99.90
16814;DHT22;8524;57.650;11.926;2023-02-15T01:26:09;4.10;99.90
16814;DHT22;8524;57.650;11.926;2023-02-15T01:28:36;4.10;99.90
16814;DHT22;8524;57.650;11.926;2023-02-15T01:31:07;4.10;99.90
16814;DHT22;8524;57.650;11.926;2023-02-15T01:33:35;4.10;99.90
16814;DHT22;8524;57.650;11.926;2023-02-15T01:36:03;4.10;99.90
16814;DHT22;8524;57.650;11.926;2023-02-15T01:38:32;4.00;99.90
16814;DHT22;8524;57.650;11.926;2023-02-15T01:40:59;4.00;99.90
16814;DHT22;8524;57.650;11.926;2023-02-15T01:43:41;4.10;99.90
16814;DHT22;8524;57.650;11.926;2023-02-15T01:46:09;4.10;99.90
16814;DHT22;8524;57.650;11.926;2023-02-15T01:48:43;4.00;99.90
16814;DHT22;8524;57.650;11.926;2023-02-15T01:51:11;4.00;99.90
16814;DHT22;8524;57.650;11.926;2023-02-15T01:53:42;4.00;99.90
16814;DHT22;8524;57.650;11.926;2023-02-15T01:56:12;4.00;99.90
16814;DHT22;8524;57.650;11.926;2023-02-15T01:58:41;4.00;99.90
16814;DHT22;8524;57.650;11.926;2023-02-15T02:01:09;4.00;99.90
16814;DHT22;8524;57.650;11.926;2023-02-15T02:03:46;4.00;99.90
16814;DHT22;8524;57.650;11.926;2023-02-15T02:06:16;4.00;99.90
16814;DHT22;8524;57.650;11.926;2023-02-15T02:08:45;4.00;99.90
16814;DHT22;8524;57.650;11.926;2023-02-15T02:11:13;4.00;99.90
16814;DHT22;8524;57.650;11.926;2023-02-15T02:13:42;4.00;99.90
16814;DHT22;8524;57.650;11.926;2023-02-15T02:16:14;4.00;99.90
16814;DHT22;8524;57.650;11.926;2023-02-15T02:18:48;4.00;99.90
16814;DHT22;8524;57.650;11.926;2023-02-15T02:21:42;4.00;99.90
16814;DHT22;8524;57.650;11.926;2023-02-15T02:24:38;4.00;99.90
16814;DHT22;8524;57.650;11.926;2023-02-15T02:27:21;4.00;99.90
16814;DHT22;8524;57.650;11.926;2023-02-15T02:33:24;4.10;99.90
16814;DHT22;8524;57.650;11.926;2023-02-15T02:36:00;4.00;99.90
16814;DHT22;8524;57.650;11.926;2023-02-15T02:38:37;4.00;99.90
16814;DHT22;8524;57.650;11.926;2023-02-15T02:41:15;4.00;99.90
16814;DHT22;8524;57.650;11.926;2023-02-15T02:43:50;4.00;99.90
16814;DHT22;8524;57.650;11.926;2023-02-15T02:46:22;4.00;99.90
16814;DHT22;8524;57.650;11.926;2023-02-15T02:48:52;4.10;99.90
16814;DHT22;8524;57.650;11.926;2023-02-15T02:51:20;4.00;99.90
16814;DHT22;8524;57.650;11.926;2023-02-15T02:53:50;4.10;99.90
16814;DHT22;8524;57.650;11.926;2023-02-15T02:56:21;4.00;99.90
16814;DHT22;8524;57.650;11.926;2023-02-15T02:58:56;4.00;99.90
16814;DHT22;8524;57.650;11.926;2023-02-15T03:01:31;4.00;99.90
16814;DHT22;8524;57.650;11.926;2023-02-15T03:04:04;4.00;99.90
16814;DHT22;8524;57.650;11.926;2023-02-15T03:06:37;4.00;99.90
16814;DHT22;8524;57.650;11.926;2023-02-15T03:09:09;4.00;99.90
16814;DHT22;8524;57.650;11.926;2023-02-15T03:11:41;4.00;99.90
16814;DHT22;8524;57.650;11.926;2023-02-15T03:14:10;4.00;99.90
16814;DHT22;8524;57.650;11.926;2023-02-15T03:16:38;4.00;99.90
16814;DHT22;8524;57.650;11.926;2023-02-15T03:19:09;4.00;99.90
16814;DHT22;8524;57.650;11.926;2023-02-15T03:21:40;4.00;99.90
16814;DHT22;8524;57.650;11.926;2023-02-15T03:24:10;3.90;99.90
16814;DHT22;8524;57.650;11.926;2023-02-15T03:26:43;3.90;99.90
16814;DHT22;8524;57.650;11.926;2023-02-15T03:29:12;3.90;99.90
16814;DHT22;8524;57.650;11.926;2023-02-15T03:31:42;3.90;99.90
16814;DHT22;8524;57.650;11.926;2023-02-15T03:34:12;3.90;99.90
16814;DHT22;8524;57.650;11.926;2023-02-15T03:36:45;3.90;99.90
16814;DHT22;8524;57.650;11.926;2023-02-15T03:39:18;3.90;99.90
16814;DHT22;8524;57.650;11.926;2023-02-15T03:41:54;3.90;99.90
16814;DHT22;8524;57.650;11.926;2023-02-15T03:44:27;3.80;99.90
16814;DHT22;8524;57.650;11.926;2023-02-15T03:46:59;3.80;99.90
16814;DHT22;8524;57.650;11.926;2023-02-15T03:49:34;3.80;99.90
16814;DHT22;8524;57.650;11.926;2023-02-15T03:52:04;3.80;99.90
16814;DHT22;8524;57.650;11.926;2023-02-15T03:54:33;3.80;99.90
16814;DHT22;8524;57.650;11.926;2023-02-15T03:57:15;3.80;99.90
16814;DHT22;8524;57.650;11.926;2023-02-15T04:00:02;3.80;99.90
16814;DHT22;8524;57.650;11.926;2023-02-15T04:03:12;3.80;99.90
16814;DHT22;8524;57.650;11.926;2023-02-15T04:05:43;3.80;99.90
16814;DHT22;8524;57.650;11.926;2023-02-15T04:08:12;3.80;99.90
16814;DHT22;8524;57.650;11.926;2023-02-15T04:10:39;3.80;99.90
16814;DHT22;8524;57.650;11.926;2023-02-15T04:13:22;3.80;99.90
16814;DHT22;8524;57.650;11.926;2023-02-15T04:15:50;3.90;99.90
16814;DHT22;8524;57.650;11.926;2023-02-15T04:18:32;3.80;99.90
16814;DHT22;8524;57.650;11.926;2023-02-15T04:21:18;3.80;99.90
16814;DHT22;8524;57.650;11.926;2023-02-15T04:24:03;3.80;99.90
16814;DHT22;8524;57.650;11.926;2023-02-15T04:26:48;3.80;99.90
16814;DHT22;8524;57.650;11.926;2023-02-15T04:29:20;3.80;99.90
16814;DHT22;8524;57.650;11.926;2023-02-15T04:31:48;3.90;99.90
16814;DHT22;8524;57.650;11.926;2023-02-15T04:34:15;3.90;99.90
16814;DHT22;8524;57.650;11.926;2023-02-15T04:36:44;3.90;99.90
16814;DHT22;8524;57.650;11.926;2023-02-15T04:39:12;3.80;99.90
16814;DHT22;8524;57.650;11.926;2023-02-15T04:41:39;3.80;99.90
16814;DHT22;8524;57.650;11.926;2023-02-15T04:44:07;3.80;99.90
16814;DHT22;8524;57.650;11.926;2023-02-15T04:46:34;3.70;99.90
16814;DHT22;8524;57.650;11.926;2023-02-15T04:49:01;3.80;99.90
16814;DHT22;8524;57.650;11.926;2023-02-15T04:51:28;3.80;99.90
16814;DHT22;8524;57.650;11.926;2023-02-15T04:53:57;3.80;99.90
16814;DHT22;8524;57.650;11.926;2023-02-15T04:56:24;3.80;99.90
16814;DHT22;8524;57.650;11.926;2023-02-15T04:58:51;3.90;99.90
16814;DHT22;8524;57.650;11.926;2023-02-15T05:01:18;3.80;99.90
16814;DHT22;8524;57.650;11.926;2023-02-15T05:03:45;3.80;99.90
16814;DHT22;8524;57.650;11.926;2023-02-15T05:06:12;3.80;99.90
16814;DHT22;8524;57.650;11.926;2023-02-15T05:08:39;3.80;99.90
16814;DHT22;8524;57.650;11.926;2023-02-15T05:11:07;3.80;99.90
16814;DHT22;8524;57.650;11.926;2023-02-15T05:13:34;3.80;99.90
16814;DHT22;8524;57.650;11.926;2023-02-15T05:16:01;3.80;99.90
16814;DHT22;8524;57.650;11.926;2023-02-15T05:18:28;3.80;99.90
16814;DHT22;8524;57.650;11.926;2023-02-15T05:20:55;3.80;99.90
16814;DHT22;8524;57.650;11.926;2023-02-15T05:23:23;3.80;99.90
16814;DHT22;8524;57.650;11.926;2023-02-15T05:25:50;3.70;99.90
16814;DHT22;8524;57.650;11.926;2023-02-15T05:28:37;3.70;99.90
16814;DHT22;8524;57.650;11.926;2023-02-15T05:31:06;3.70;99.90
16814;DHT22;8524;57.650;11.926;2023-02-15T05:33:34;3.60;99.90
16814;DHT22;8524;57.650;11.926;2023-02-15T05:36:02;3.70;99.90
16814;DHT22;8524;57.650;11.926;2023-02-15T05:38:30;3.60;99.90
16814;DHT22;8524;57.650;11.926;2023-02-15T05:40:57;3.60;99.90
16814;DHT22;8524;57.650;11.926;2023-02-15T05:43:25;3.60;99.90
16814;DHT22;8524;57.650;11.926;2023-02-15T05:45:54;3.60;99.90
16814;DHT22;8524;57.650;11.926;2023-02-15T05:48:23;3.50;99.90
16814;DHT22;8524;57.650;11.926;2023-02-15T05:50:57;3.60;99.90
16814;DHT22;8524;57.650;11.926;2023-02-15T05:53:25;3.60;99.90
16814;DHT22;8524;57.650;11.926;2023-02-15T05:55:52;3.70;99.90
16814;DHT22;8524;57.650;11.926;2023-02-15T05:58:19;3.60;99.90
16814;DHT22;8524;57.650;11.926;2023-02-15T06:00:46;3.60;99.90
16814;DHT22;8524;57.650;11.926;2023-02-15T06:03:15;3.60;99.90
16814;DHT22;8524;57.650;11.926;2023-02-15T06:05:42;3.50;99.90
16814;DHT22;8524;57.650;11.926;2023-02-15T06:08:09;3.50;99.90
16814;DHT22;8524;57.650;11.926;2023-02-15T06:10:36;3.50;99.90
16814;DHT22;8524;57.650;11.926;2023-02-15T06:13:03;3.50;99.90
16814;DHT22;8524;57.650;11.926;2023-02-15T06:15:30;3.60;99.90
16814;DHT22;8524;57.650;11.926;2023-02-15T06:17:57;3.50;99.90
16814;DHT22;8524;57.650;11.926;2023-02-15T06:20:25;3.50;99.90
16814;DHT22;8524;57.650;11.926;2023-02-15T06:22:52;3.60;99.90
16814;DHT22;8524;57.650;11.926;2023-02-15T06:25:19;3.60;99.90
16814;DHT22;8524;57.650;11.926;2023-02-15T06:27:46;3.50;99.90
16814;DHT22;8524;57.650;11.926;2023-02-15T06:30:15;3.50;99.90
16814;DHT22;8524;57.650;11.926;2023-02-15T06:32:42;3.50;99.90
16814;DHT22;8524;57.650;11.926;2023-02-15T06:35:09;3.50;99.90
16814;DHT22;8524;57.650;11.926;2023-02-15T06:37:37;3.50;99.90
16814;DHT22;8524;57.650;11.926;2023-02-15T06:40:06;3.50;99.90
16814;DHT22;8524;57.650;11.926;2023-02-15T06:42:33;3.50;99.90
16814;DHT22;8524;57.650;11.926;2023-02-15T06:45:00;3.50;99.90
16814;DHT22;8524;57.650;11.926;2023-02-15T06:47:27;3.50;99.90
16814;DHT22;8524;57.650;11.926;2023-02-15T06:49:54;3.50;99.90
16814;DHT22;8524;57.650;11.926;2023-02-15T06:52:21;3.50;99.90
16814;DHT22;8524;57.650;11.926;2023-02-15T06:54:50;3.50;99.90
16814;DHT22;8524;57.650;11.926;2023-02-15T06:57:17;3.50;99.90
16814;DHT22;8524;57.650;11.926;2023-02-15T06:59:43;3.50;99.90
16814;DHT22;8524;57.650;11.926;2023-02-15T07:02:11;3.50;99.90
16814;DHT22;8524;57.650;11.926;2023-02-15T07:04:38;3.50;99.90
16814;DHT22;8524;57.650;11.926;2023-02-15T07:07:08;3.50;99.90
16814;DHT22;8524;57.650;11.926;2023-02-15T07:09:35;3.50;99.90
16814;DHT22;8524;57.650;11.926;2023-02-15T07:12:04;3.50;99.90
16814;DHT22;8524;57.650;11.926;2023-02-15T07:14:49;3.40;99.90
16814;DHT22;8524;57.650;11.926;2023-02-15T07:17:16;3.50;99.90
16814;DHT22;8524;57.650;11.926;2023-02-15T07:19:43;3.50;99.90
16814;DHT22;8524;57.650;11.926;2023-02-15T07:22:10;3.50;99.90
16814;DHT22;8524;57.650;11.926;2023-02-15T07:24:37;3.50;99.90
16814;DHT22;8524;57.650;11.926;2023-02-15T07:27:06;3.50;99.90
16814;DHT22;8524;57.650;11.926;2023-02-15T07:29:33;3.40;99.90
16814;DHT22;8524;57.650;11.926;2023-02-15T07:32:00;3.40;99.90
16814;DHT22;8524;57.650;11.926;2023-02-15T07:34:27;3.40;99.90
16814;DHT22;8524;57.650;11.926;2023-02-15T07:36:54;3.40;99.90
16814;DHT22;8524;57.650;11.926;2023-02-15T07:39:21;3.40;99.90
16814;DHT22;8524;57.650;11.926;2023-02-15T07:41:48;3.40;99.90
16814;DHT22;8524;57.650;11.926;2023-02-15T07:44:17;3.50;99.90
16814;DHT22;8524;57.650;11.926;2023-02-15T07:46:44;3.40;99.90
16814;DHT22;8524;57.650;11.926;2023-02-15T07:49:11;3.40;99.90
16814;DHT22;8524;57.650;11.926;2023-02-15T07:51:38;3.40;99.90
16814;DHT22;8524;57.650;11.926;2023-02-15T07:54:06;3.40;99.90
16814;DHT22;8524;57.650;11.926;2023-02-15T07:56:33;3.40;99.90
16814;DHT22;8524;57.650;11.926;2023-02-15T07:59:00;3.40;99.90
16814;DHT22;8524;57.650;11.926;2023-02-15T08:01:33;3.50;99.90
16814;DHT22;8524;57.650;11.926;2023-02-15T08:04:02;3.50;99.90
16814;DHT22;8524;57.650;11.926;2023-02-15T08:06:32;3.50;99.90
16814;DHT22;8524;57.650;11.926;2023-02-15T08:09:00;3.50;99.90
16814;DHT22;8524;57.650;11.926;2023-02-15T08:11:28;3.60;99.90
16814;DHT22;8524;57.650;11.926;2023-02-15T08:14:00;3.60;99.90
16814;DHT22;8524;57.650;11.926;2023-02-15T08:16:31;3.50;99.90
16814;DHT22;8524;57.650;11.926;2023-02-15T08:19:01;3.50;99.90
16814;DHT22;8524;57.650;11.926;2023-02-15T08:21:29;3.60;99.90
16814;DHT22;8524;57.650;11.926;2023-02-15T08:23:57;3.70;99.90
16814;DHT22;8524;57.650;11.926;2023-02-15T08:26:25;3.60;99.90
16814;DHT22;8524;57.650;11.926;2023-02-15T08:28:53;3.70;99.90
16814;DHT22;8524;57.650;11.926;2023-02-15T08:31:21;3.80;99.90
16814;DHT22;8524;57.650;11.926;2023-02-15T08:33:52;3.80;99.90
16814;DHT22;8524;57.650;11.926;2023-02-15T08:36:20;3.70;99.90
16814;DHT22;8524;57.650;11.926;2023-02-15T08:38:48;3.70;99.90
16814;DHT22;8524;57.650;11.926;2023-02-15T08:41:17;3.80;99.90
16814;DHT22;8524;57.650;11.926;2023-02-15T08:43:47;3.90;99.90
16814;DHT22;8524;57.650;11.926;2023-02-15T08:46:15;3.90;99.90
16814;DHT22;8524;57.650;11.926;2023-02-15T08:48:43;3.90;99.90
16814;DHT22;8524;57.650;11.926;2023-02-15T08:51:13;3.90;99.90
16814;DHT22;8524;57.650;11.926;2023-02-15T08:53:43;3.90;99.90
16814;DHT22;8524;57.650;11.926;2023-02-15T08:56:11;3.90;99.90
16814;DHT22;8524;57.650;11.926;2023-02-15T08:58:38;3.90;99.90
16814;DHT22;8524;57.650;11.926;2023-02-15T09:01:09;3.90;99.90
16814;DHT22;8524;57.650;11.926;2023-02-15T09:03:36;3.90;99.90
16814;DHT22;8524;57.650;11.926;2023-02-15T09:06:04;3.90;99.90
16814;DHT22;8524;57.650;11.926;2023-02-15T09:08:33;3.90;99.90
16814;DHT22;8524;57.650;11.926;2023-02-15T09:11:07;3.90;99.90
16814;DHT22;8524;57.650;11.926;2023-02-15T09:13:35;4.00;99.90
16814;DHT22;8524;57.650;11.926;2023-02-15T09:16:03;3.90;99.90
16814;DHT22;8524;57.650;11.926;2023-02-15T09:18:32;4.00;99.90
16814;DHT22;8524;57.650;11.926;2023-02-15T09:21:05;4.00;99.90
16814;DHT22;8524;57.650;11.926;2023-02-15T09:23:34;4.00;99.90
16814;DHT22;8524;57.650;11.926;2023-02-15T09:26:04;4.00;99.90
16814;DHT22;8524;57.650;11.926;2023-02-15T09:28:31;4.00;99.90
16814;DHT22;8524;57.650;11.926;2023-02-15T09:31:08;4.00;99.90
16814;DHT22;8524;57.650;11.926;2023-02-15T09:33:36;4.10;99.90
16814;DHT22;8524;57.650;11.926;2023-02-15T09:36:05;4.00;99.90
16814;DHT22;8524;57.650;11.926;2023-02-15T09:38:34;4.10;99.90
16814;DHT22;8524;57.650;11.926;2023-02-15T09:41:13;4.10;99.90
16814;DHT22;8524;57.650;11.926;2023-02-15T09:43:50;4.10;99.90
16814;DHT22;8524;57.650;11.926;2023-02-15T09:46:29;4.10;99.90
16814;DHT22;8524;57.650;11.926;2023-02-15T09:49:07;4.10;99.90
16814;DHT22;8524;57.650;11.926;2023-02-15T09:52:01;4.10;99.90
16814;DHT22;8524;57.650;11.926;2023-02-15T09:54:42;4.10;99.90
16814;DHT22;8524;57.650;11.926;2023-02-15T09:57:17;4.10;99.90
16814;DHT22;8524;57.650;11.926;2023-02-15T09:59:54;4.20;99.90
16814;DHT22;8524;57.650;11.926;2023-02-15T10:02:32;4.20;99.90
16814;DHT22;8524;57.650;11.926;2023-02-15T10:05:15;4.20;99.90
16814;DHT22;8524;57.650;11.926;2023-02-15T10:10:55;4.20;99.90
16814;DHT22;8524;57.650;11.926;2023-02-15T10:13:52;4.20;99.90
16814;DHT22;8524;57.650;11.926;2023-02-15T10:16:30;4.30;99.90
16814;DHT22;8524;57.650;11.926;2023-02-15T10:19:05;4.20;99.90
16814;DHT22;8524;57.650;11.926;2023-02-15T10:21:43;4.20;99.90
16814;DHT22;8524;57.650;11.926;2023-02-15T10:24:21;4.20;99.90
16814;DHT22;8524;57.650;11.926;2023-02-15T10:26:57;4.20;99.90
16814;DHT22;8524;57.650;11.926;2023-02-15T10:29:31;4.20;99.90
16814;DHT22;8524;57.650;11.926;2023-02-15T10:32:04;4.10;99.90
16814;DHT22;8524;57.650;11.926;2023-02-15T10:34:37;4.20;99.90
16814;DHT22;8524;57.650;11.926;2023-02-15T10:37:23;4.20;99.90
16814;DHT22;8524;57.650;11.926;2023-02-15T10:40:02;4.30;99.90
16814;DHT22;8524;57.650;11.926;2023-02-15T10:42:42;4.40;99.90
16814;DHT22;8524;57.650;11.926;2023-02-15T10:45:19;4.30;99.90
16814;DHT22;8524;57.650;11.926;2023-02-15T10:50:46;4.30;99.90
16814;DHT22;8524;57.650;11.926;2023-02-15T10:53:26;4.30;99.90
16814;DHT22;8524;57.650;11.926;2023-02-15T10:56:04;4.30;99.90
16814;DHT22;8524;57.650;11.926;2023-02-15T10:58:49;4.30;99.90
16814;DHT22;8524;57.650;11.926;2023-02-15T11:01:24;4.30;99.90
16814;DHT22;8524;57.650;11.926;2023-02-15T11:04:09;4.30;99.90
16814;DHT22;8524;57.650;11.926;2023-02-15T11:06:44;4.30;99.90
16814;DHT22;8524;57.650;11.926;2023-02-15T11:09:18;4.30;99.90
16814;DHT22;8524;57.650;11.926;2023-02-15T11:11:49;4.40;99.90
16814;DHT22;8524;57.650;11.926;2023-02-15T11:14:27;4.40;99.90
16814;DHT22;8524;57.650;11.926;2023-02-15T11:17:02;4.40;99.90
16814;DHT22;8524;57.650;11.926;2023-02-15T11:19:33;4.40;99.90
16814;DHT22;8524;57.650;11.926;2023-02-15T11:22:04;4.30;99.90
16814;DHT22;8524;57.650;11.926;2023-02-15T11:24:35;4.30;99.90
16814;DHT22;8524;57.650;11.926;2023-02-15T11:27:12;4.40;99.90
16814;DHT22;8524;57.650;11.926;2023-02-15T11:29:52;4.30;99.90
16814;DHT22;8524;57.650;11.926;2023-02-15T11:32:24;4.40;99.90
16814;DHT22;8524;57.650;11.926;2023-02-15T11:34:56;4.30;99.90
16814;DHT22;8524;57.650;11.926;2023-02-15T11:37:30;4.30;99.90
16814;DHT22;8524;57.650;11.926;2023-02-15T11:40:01;4.40;99.90
16814;DHT22;8524;57.650;11.926;2023-02-15T11:42:30;4.40;99.90
16814;DHT22;8524;57.650;11.926;2023-02-15T11:45:06;4.30;99.90
16814;DHT22;8524;57.650;11.926;2023-02-15T11:47:41;4.30;99.90
16814;DHT22;8524;57.650;11.926;2023-02-15T11:50:12;4.30;99.90
16814;DHT22;8524;57.650;11.926;2023-02-15T11:52:40;4.30;99.90
16814;DHT22;8524;57.650;11.926;2023-02-15T11:55:12;4.40;99.90
16814;DHT22;8524;57.650;11.926;2023-02-15T11:57:43;4.50;99.90
16814;DHT22;8524;57.650;11.926;2023-02-15T12:00:16;4.40;99.90
16814;DHT22;8524;57.650;11.926;2023-02-15T12:02:51;4.40;99.90
16814;DHT22;8524;57.650;11.926;2023-02-15T12:05:22;4.40;99.90
16814;DHT22;8524;57.650;11.926;2023-02-15T12:07:53;4.50;99.90
16814;DHT22;8524;57.650;11.926;2023-02-15T12:10:24;4.40;99.90
16814;DHT22;8524;57.650;11.926;2023-02-15T12:13:09;4.50;99.90
16814;DHT22;8524;57.650;11.926;2023-02-15T12:15:41;4.50;99.90
16814;DHT22;8524;57.650;11.926;2023-02-15T12:18:18;4.40;99.90
16814;DHT22;8524;57.650;11.926;2023-02-15T12:20:46;4.50;99.90
16814;DHT22;8524;57.650;11.926;2023-02-15T12:23:15;4.50;99.90
16814;DHT22;8524;57.650;11.926;2023-02-15T12:25:43;4.40;99.90
16814;DHT22;8524;57.650;11.926;2023-02-15T12:28:24;4.40;99.90
16814;DHT22;8524;57.650;11.926;2023-02-15T12:30:54;4.50;99.90
16814;DHT22;8524;57.650;11.926;2023-02-15T12:33:26;4.50;99.90
16814;DHT22;8524;57.650;11.926;2023-02-15T12:35:57;4.60;99.90
16814;DHT22;8524;57.650;11.926;2023-02-15T12:38:27;4.50;99.90
16814;DHT22;8524;57.650;11.926;2023-02-15T12:40:59;4.50;99.90
16814;DHT22;8524;57.650;11.926;2023-02-15T12:43:31;4.50;99.90
16814;DHT22;8524;57.650;11.926;2023-02-15T12:49:10;4.60;99.90
16814;DHT22;8524;57.650;11.926;2023-02-15T12:51:46;4.60;99.90
16814;DHT22;8524;57.650;11.926;2023-02-15T12:54:31;4.60;99.90
16814;DHT22;8524;57.650;11.926;2023-02-15T12:57:22;4.50;99.90
16814;DHT22;8524;57.650;11.926;2023-02-15T12:59:52;4.60;99.90
16814;DHT22;8524;57.650;11.926;2023-02-15T13:02:28;4.50;99.90
16814;DHT22;8524;57.650;11.926;2023-02-15T13:05:07;4.50;99.90
16814;DHT22;8524;57.650;11.926;2023-02-15T13:07:45;4.60;99.90
16814;DHT22;8524;57.650;11.926;2023-02-15T13:10:22;4.60;99.90
16814;DHT22;8524;57.650;11.926;2023-02-15T13:12:52;4.80;99.90
16814;DHT22;8524;57.650;11.926;2023-02-15T13:15:30;4.80;99.90
16814;DHT22;8524;57.650;11.926;2023-02-15T13:17:58;4.80;99.90
16814;DHT22;8524;57.650;11.926;2023-02-15T13:20:28;4.70;99.90
16814;DHT22;8524;57.650;11.926;2023-02-15T13:22:58;4.70;99.90
16814;DHT22;8524;57.650;11.926;2023-02-15T13:25:29;4.70;99.90
16814;DHT22;8524;57.650;11.926;2023-02-15T13:28:02;4.70;99.90
16814;DHT22;8524;57.650;11.926;2023-02-15T13:30:32;4.70;99.90
16814;DHT22;8524;57.650;11.926;2023-02-15T13:33:03;4.70;99.90
16814;DHT22;8524;57.650;11.926;2023-02-15T13:35:38;4.80;99.90
16814;DHT22;8524;57.650;11.926;2023-02-15T13:38:19;4.80;99.90
16814;DHT22;8524;57.650;11.926;2023-02-15T13:40:55;4.80;99.90
16814;DHT22;8524;57.650;11.926;2023-02-15T13:43:37;4.90;99.90
16814;DHT22;8524;57.650;11.926;2023-02-15T13:46:20;4.80;99.90
16814;DHT22;8524;57.650;11.926;2023-02-15T13:48:58;4.80;99.90
16814;DHT22;8524;57.650;11.926;2023-02-15T13:51:35;4.80;99.90
16814;DHT22;8524;57.650;11.926;2023-02-15T13:54:21;4.80;99.90
16814;DHT22;8524;57.650;11.926;2023-02-15T13:56:59;4.80;99.90
16814;DHT22;8524;57.650;11.926;2023-02-15T13:59:38;4.70;99.90
16814;DHT22;8524;57.650;11.926;2023-02-15T14:02:33;4.80;99.90
16814;DHT22;8524;57.650;11.926;2023-02-15T14:05:21;4.90;99.90
16814;DHT22;8524;57.650;11.926;2023-02-15T14:07:57;4.80;99.90
16814;DHT22;8524;57.650;11.926;2023-02-15T14:10:51;4.80;99.90
16814;DHT22;8524;57.650;11.926;2023-02-15T14:16:27;4.80;99.90
16814;DHT22;8524;57.650;11.926;2023-02-15T14:19:05;4.80;99.90
16814;DHT22;8524;57.650;11.926;2023-02-15T14:21:41;4.90;99.90
16814;DHT22;8524;57.650;11.926;2023-02-15T14:24:21;4.80;99.90
16814;DHT22;8524;57.650;11.926;2023-02-15T14:26:57;4.80;99.90
16814;DHT22;8524;57.650;11.926;2023-02-15T14:29:46;4.80;99.90
16814;DHT22;8524;57.650;11.926;2023-02-15T14:32:18;4.70;99.90
16814;DHT22;8524;57.650;11.926;2023-02-15T14:34:51;4.70;99.90
16814;DHT22;8524;57.650;11.926;2023-02-15T14:37:29;4.70;99.90
16814;DHT22;8524;57.650;11.926;2023-02-15T14:40:03;4.70;99.90
16814;DHT22;8524;57.650;11.926;2023-02-15T14:42:55;4.80;99.90
16814;DHT22;8524;57.650;11.926;2023-02-15T14:45:28;4.80;99.90
16814;DHT22;8524;57.650;11.926;2023-02-15T14:48:03;4.70;99.90
16814;DHT22;8524;57.650;11.926;2023-02-15T14:50:43;4.80;99.90
16814;DHT22;8524;57.650;11.926;2023-02-15T14:53:25;4.80;99.90
16814;DHT22;8524;57.650;11.926;2023-02-15T14:56:22;4.80;99.90
16814;DHT22;8524;57.650;11.926;2023-02-15T14:59:12;4.80;99.90
16814;DHT22;8524;57.650;11.926;2023-02-15T15:01:41;4.80;99.90
16814;DHT22;8524;57.650;11.926;2023-02-15T15:04:10;4.80;99.90
16814;DHT22;8524;57.650;11.926;2023-02-15T15:06:42;4.70;99.90
16814;DHT22;8524;57.650;11.926;2023-02-15T15:09:12;4.80;99.90
16814;DHT22;8524;57.650;11.926;2023-02-15T15:11:43;4.90;99.90
16814;DHT22;8524;57.650;11.926;2023-02-15T15:16:53;4.80;99.90
16814;DHT22;8524;57.650;11.926;2023-02-15T15:22:34;4.80;99.90
16814;DHT22;8524;57.650;11.926;2023-02-15T15:25:03;4.80;99.90
16814;DHT22;8524;57.650;11.926;2023-02-15T15:27:44;4.80;99.90
16814;DHT22;8524;57.650;11.926;2023-02-15T15:43:03;4.70;99.90
16814;DHT22;8524;57.650;11.926;2023-02-15T15:46:13;4.70;99.90
16814;DHT22;8524;57.650;11.926;2023-02-15T15:48:40;4.70;99.90
16814;DHT22;8524;57.650;11.926;2023-02-15T15:51:17;4.70;99.90
16814;DHT22;8524;57.650;11.926;2023-02-15T15:53:49;4.70;99.90
16814;DHT22;8524;57.650;11.926;2023-02-15T15:56:20;4.70;99.90
16814;DHT22;8524;57.650;11.926;2023-02-15T15:58:52;4.70;99.90
16814;DHT22;8524;57.650;11.926;2023-02-15T16:01:26;4.70;99.90
16814;DHT22;8524;57.650;11.926;2023-02-15T16:03:55;4.70;99.90
16814;DHT22;8524;57.650;11.926;2023-02-15T16:06:34;4.70;99.90
16814;DHT22;8524;57.650;11.926;2023-02-15T16:09:12;4.70;99.90
16814;DHT22;8524;57.650;11.926;2023-02-15T16:11:40;4.70;99.90
16814;DHT22;8524;57.650;11.926;2023-02-15T16:14:17;4.70;99.90
16814;DHT22;8524;57.650;11.926;2023-02-15T16:16:51;4.60;99.90
16814;DHT22;8524;57.650;11.926;2023-02-15T16:19:22;4.60;99.90
16814;DHT22;8524;57.650;11.926;2023-02-15T16:21:50;4.60;99.90
16814;DHT22;8524;57.650;11.926;2023-02-15T16:24:43;4.60;99.90
16814;DHT22;8524;57.650;11.926;2023-02-15T16:27:30;4.60;99.90
16814;DHT22;8524;57.650;11.926;2023-02-15T16:30:20;4.60;99.90
16814;DHT22;8524;57.650;11.926;2023-02-15T16:32:47;4.60;99.90
16814;DHT22;8524;57.650;11.926;2023-02-15T16:35:16;4.60;99.90
16814;DHT22;8524;57.650;11.926;2023-02-15T16:37:44;4.60;99.90
16814;DHT22;8524;57.650;11.926;2023-02-15T16:40:27;4.60;99.90
16814;DHT22;8524;57.650;11.926;2023-02-15T16:42:56;4.60;99.90
16814;DHT22;8524;57.650;11.926;2023-02-15T16:45:26;4.50;99.90
16814;DHT22;8524;57.650;11.926;2023-02-15T16:47:56;4.60;99.90
16814;DHT22;8524;57.650;11.926;2023-02-15T16:50:27;4.60;99.90
16814;DHT22;8524;57.650;11.926;2023-02-15T16:52:56;4.60;99.90